Time;durP1;ratioP1;P1;durP2;ratioP2;P2;SDS_P1;SDS_P2;PMS_P1;PMS_P2;Temp;Humidity;BMP_temperature;BMP_pressure;BME280_temperature;BME280_humidity;BME280_pressure;Samples;Min_cycle;Max_cycle;Signal;HPM_P1;HPM_P2
2023/07/05 00:02:10;;;;;;;3.60;2.17;;;18.40;86.60;;;;;;5014481;28;20547;-70
2023/07/05 00:04:37;;;;;;;4.33;2.20;;;18.40;87.10;;;;;;5014015;28;20434;-70
2023/07/05 00:07:06;;;;;;;3.70;2.00;;;18.20;87.30;;;;;;5014696;28;20462;-69
2023/07/05 00:09:33;;;;;;;3.90;1.83;;;18.20;87.70;;;;;;5014846;28;20434;-69
2023/07/05 00:12:00;;;;;;;3.13;2.00;;;18.10;88.10;;;;;;5014656;28;20465;-69
2023/07/05 00:14:28;;;;;;;3.33;1.87;;;18.10;88.30;;;;;;5013365;28;20892;-69
2023/07/05 00:16:56;;;;;;;3.73;2.50;;;18.10;87.30;;;;;;5014275;28;20434;-69
2023/07/05 00:19:23;;;;;;;3.70;2.30;;;18.10;87.50;;;;;;5014426;28;20474;-70
2023/07/05 00:21:49;;;;;;;3.23;2.17;;;18.10;87.70;;;;;;5014349;28;20449;-70
2023/07/05 00:24:18;;;;;;;2.57;1.57;;;18.10;87.40;;;;;;5013358;28;20462;-70
2023/07/05 00:26:45;;;;;;;5.47;2.10;;;18.00;87.40;;;;;;5014492;28;20512;-70
2023/07/05 00:29:12;;;;;;;4.30;2.00;;;18.00;87.20;;;;;;5014312;28;20433;-69
2023/07/05 00:31:39;;;;;;;7.10;2.70;;;18.00;87.20;;;;;;5013966;28;20472;-69
2023/07/05 00:34:06;;;;;;;4.10;1.80;;;18.00;87.60;;;;;;5014021;28;20916;-69
2023/07/05 00:36:33;;;;;;;3.80;2.17;;;17.90;88.20;;;;;;5014192;28;20492;-69
2023/07/05 00:39:00;;;;;;;3.27;1.93;;;17.90;88.80;;;;;;5013911;28;20947;-70
2023/07/05 00:41:28;;;;;;;4.57;2.20;;;17.90;88.40;;;;;;5014178;28;20487;-69
2023/07/05 00:43:55;;;;;;;4.13;1.83;;;17.80;86.70;;;;;;5014071;28;20517;-69
2023/07/05 00:46:27;;;;;;;3.83;2.00;;;17.70;86.80;;;;;;4995822;28;20465;-69
2023/07/05 00:49:01;;;;;;;4.40;2.37;;;17.70;87.20;;;;;;4994542;28;20458;-69
2023/07/05 00:51:35;;;;;;;2.97;1.80;;;17.60;87.10;;;;;;4994080;28;20904;-69
2023/07/05 00:54:04;;;;;;;4.20;1.77;;;17.50;87.70;;;;;;4994535;28;20457;-69
2023/07/05 00:56:39;;;;;;;4.10;2.20;;;17.50;88.20;;;;;;4993888;28;20755;-69
2023/07/05 00:59:09;;;;;;;3.70;1.97;;;17.40;88.40;;;;;;4993991;28;20421;-69
2023/07/05 01:01:37;;;;;;;3.17;2.00;;;17.40;89.10;;;;;;4993630;28;20555;-69
2023/07/05 01:04:04;;;;;;;3.60;2.10;;;17.40;90.00;;;;;;4994081;28;20535;-70
2023/07/05 01:06:32;;;;;;;5.30;2.40;;;17.30;90.40;;;;;;4993676;28;20448;-69
2023/07/05 01:08:59;;;;;;;3.33;1.83;;;17.30;90.70;;;;;;4993992;28;20476;-69
2023/07/05 01:11:35;;;;;;;2.50;1.43;;;17.30;90.50;;;;;;4993875;28;20468;-70
2023/07/05 01:14:08;;;;;;;3.80;1.83;;;17.30;90.50;;;;;;4994270;28;20840;-69
2023/07/05 01:16:52;;;;;;;4.40;2.60;;;17.30;90.50;;;;;;4993709;28;20436;-69
2023/07/05 01:19:44;;;;;;;4.90;2.30;;;17.30;90.50;;;;;;4999055;28;20421;-69
2023/07/05 01:22:19;;;;;;;4.60;2.30;;;17.30;90.30;;;;;;5013054;28;20464;-69
2023/07/05 01:25:13;;;;;;;3.53;2.10;;;17.30;90.00;;;;;;5012827;28;20433;-69
2023/07/05 01:28:07;;;;;;;3.10;1.90;;;17.20;87.50;;;;;;5015325;28;20529;-69
2023/07/05 01:31:12;;;;;;;3.70;2.00;;;17.10;87.50;;;;;;5017802;28;20441;-69
2023/07/05 01:33:44;;;;;;;3.27;1.90;;;17.00;88.30;;;;;;5013930;28;20440;-69
2023/07/05 01:36:13;;;;;;;3.20;2.20;;;16.90;88.90;;;;;;5017465;28;20531;-69
2023/07/05 01:38:39;;;;;;;3.00;2.23;;;16.90;90.00;;;;;;5017512;28;20772;-69
2023/07/05 01:41:08;;;;;;;3.97;2.37;;;16.90;90.60;;;;;;5017296;28;20487;-69
2023/07/05 01:43:38;;;;;;;3.30;2.50;;;16.90;91.00;;;;;;5016857;28;20521;-69
2023/07/05 01:46:24;;;;;;;4.67;2.17;;;16.90;91.10;;;;;;5016434;28;20426;-69
2023/07/05 01:49:21;;;;;;;3.43;2.07;;;16.90;91.30;;;;;;5017116;28;20885;-69
2023/07/05 01:51:55;;;;;;;3.40;2.30;;;16.90;91.50;;;;;;4978184;28;20482;-70
2023/07/05 01:54:28;;;;;;;5.67;2.73;;;17.00;91.60;;;;;;4978264;28;20461;-69
2023/07/05 01:57:00;;;;;;;4.53;2.80;;;17.00;91.60;;;;;;4977939;28;20960;-69
2023/07/05 01:59:42;;;;;;;5.77;2.87;;;16.90;91.50;;;;;;4978148;28;20422;-70
2023/07/05 02:02:11;;;;;;;4.07;3.67;;;16.90;91.70;;;;;;4978001;28;20415;-70
2023/07/05 02:04:39;;;;;;;4.07;2.50;;;17.00;91.70;;;;;;4979248;28;20873;-69
2023/07/05 02:07:07;;;;;;;3.77;2.07;;;17.00;91.30;;;;;;4996957;28;20437;-69
2023/07/05 02:09:37;;;;;;;3.27;2.53;;;16.90;91.30;;;;;;4997457;28;20821;-70
2023/07/05 02:12:05;;;;;;;3.63;2.23;;;16.90;91.40;;;;;;4997273;28;20470;-69
2023/07/05 02:14:32;;;;;;;3.60;2.30;;;16.90;91.40;;;;;;4996737;28;20448;-70
2023/07/05 02:16:59;;;;;;;3.47;2.13;;;16.90;91.30;;;;;;4997259;28;20848;-69
2023/07/05 02:19:26;;;;;;;7.63;2.77;;;16.90;91.10;;;;;;4997342;28;20457;-69
2023/07/05 02:21:54;;;;;;;5.40;2.63;;;16.90;90.90;;;;;;4997019;28;20466;-69
2023/07/05 02:24:21;;;;;;;3.50;2.57;;;16.90;91.50;;;;;;4996671;28;21039;-70
2023/07/05 02:26:48;;;;;;;5.13;2.30;;;16.80;91.10;;;;;;5015228;28;20483;-69
2023/07/05 02:29:15;;;;;;;8.57;2.63;;;16.80;91.30;;;;;;5016553;28;20479;-69
2023/07/05 02:31:41;;;;;;;3.57;2.00;;;16.80;91.40;;;;;;5003018;28;20917;-70
2023/07/05 02:34:08;;;;;;;4.17;2.60;;;16.70;91.40;;;;;;4994707;28;20466;-69
2023/07/05 02:36:35;;;;;;;3.87;2.70;;;16.70;91.30;;;;;;4996733;28;20492;-69
2023/07/05 02:39:04;;;;;;;4.60;2.47;;;16.60;91.20;;;;;;4996429;28;20440;-70
2023/07/05 02:41:31;;;;;;;5.17;2.40;;;16.60;91.30;;;;;;4997401;28;20474;-70
2023/07/05 02:43:58;;;;;;;5.00;2.27;;;16.60;91.40;;;;;;4996773;28;20477;-69
2023/07/05 02:46:26;;;;;;;4.87;2.43;;;16.60;91.00;;;;;;4996443;28;20445;-69
2023/07/05 02:48:55;;;;;;;4.03;2.20;;;16.50;90.30;;;;;;4996346;28;20832;-69
2023/07/05 02:51:22;;;;;;;3.70;2.30;;;16.50;90.50;;;;;;4995618;28;20445;-69
2023/07/05 02:53:49;;;;;;;4.80;2.80;;;16.30;91.30;;;;;;4996475;28;20442;-69
2023/07/05 02:56:17;;;;;;;3.47;2.27;;;16.30;91.20;;;;;;4996223;28;20966;-71
2023/07/05 02:58:44;;;;;;;3.57;2.90;;;16.20;91.60;;;;;;4996529;28;20476;-69
2023/07/05 03:01:11;;;;;;;3.57;2.30;;;16.20;91.70;;;;;;4996440;28;20476;-69
2023/07/05 03:03:38;;;;;;;4.77;2.60;;;16.10;92.00;;;;;;5008911;28;20513;-69
2023/07/05 03:06:05;;;;;;;4.80;2.53;;;16.00;92.40;;;;;;5015850;28;20518;-70
2023/07/05 03:08:32;;;;;;;3.23;2.40;;;15.80;92.70;;;;;;5015495;28;20436;-69
2023/07/05 03:11:00;;;;;;;4.33;2.50;;;15.90;93.10;;;;;;5015518;28;20494;-69
2023/07/05 03:13:30;;;;;;;6.80;3.17;;;15.80;93.20;;;;;;5015165;28;20466;-69
2023/07/05 03:15:58;;;;;;;4.57;2.63;;;15.90;93.30;;;;;;5015399;28;20990;-69
2023/07/05 03:18:25;;;;;;;2.90;2.20;;;15.90;93.30;;;;;;5015385;28;20460;-69
2023/07/05 03:20:52;;;;;;;3.63;2.30;;;15.90;93.40;;;;;;5015658;28;20486;-69
2023/07/05 03:23:19;;;;;;;5.23;2.83;;;15.80;93.40;;;;;;5008639;28;20468;-69
2023/07/05 03:25:54;;;;;;;5.27;2.90;;;15.80;93.40;;;;;;4996000;28;20460;-69
2023/07/05 03:28:21;;;;;;;3.80;2.10;;;15.60;93.70;;;;;;4996027;28;20774;-69
2023/07/05 03:30:56;;;;;;;4.63;1.70;;;15.60;94.10;;;;;;4995910;28;20430;-69
2023/07/05 03:33:23;;;;;;;3.97;2.10;;;15.60;94.30;;;;;;4995642;28;20833;-69
2023/07/05 03:35:58;;;;;;;4.63;2.23;;;15.70;94.20;;;;;;4995799;28;20472;-69
2023/07/05 03:38:26;;;;;;;4.10;2.70;;;15.70;94.40;;;;;;4995468;28;20483;-69
2023/07/05 03:41:00;;;;;;;3.20;2.20;;;15.70;94.30;;;;;;4996496;28;20430;-70
2023/07/05 03:43:28;;;;;;;3.60;2.33;;;15.80;93.90;;;;;;4959573;28;20483;-69
2023/07/05 03:45:59;;;;;;;4.67;2.70;;;15.80;93.60;;;;;;4994579;28;20469;-74
2023/07/05 03:48:27;;;;;;;4.80;2.60;;;15.80;93.40;;;;;;5001210;28;20418;-70
2023/07/05 03:50:56;;;;;;;4.00;2.57;;;15.80;93.40;;;;;;4996974;28;20954;-70
2023/07/05 03:53:24;;;;;;;5.10;3.07;;;15.80;93.00;;;;;;5005045;28;20440;-69
2023/07/05 03:55:51;;;;;;;5.33;2.50;;;15.80;92.80;;;;;;4997721;28;20493;-69
2023/07/05 03:58:18;;;;;;;3.80;2.13;;;15.80;92.40;;;;;;4994502;28;20429;-72
2023/07/05 04:00:46;;;;;;;3.57;2.43;;;15.80;92.40;;;;;;4994872;28;20515;-69
2023/07/05 04:03:14;;;;;;;4.37;2.87;;;15.80;92.90;;;;;;4994745;28;20433;-70
2023/07/05 04:05:41;;;;;;;3.00;2.10;;;15.80;93.10;;;;;;4996346;28;20468;-70
2023/07/05 04:08:08;;;;;;;7.00;2.50;;;15.80;93.30;;;;;;5005466;28;20942;-69
2023/07/05 04:10:35;;;;;;;3.77;2.60;;;15.70;93.50;;;;;;5004352;28;20439;-69
2023/07/05 04:13:02;;;;;;;8.00;2.13;;;15.80;93.60;;;;;;4995659;28;20452;-71
2023/07/05 04:15:29;;;;;;;5.20;2.23;;;15.80;93.60;;;;;;5005044;28;20482;-70
2023/07/05 04:17:56;;;;;;;5.50;2.43;;;15.90;93.40;;;;;;4994041;28;20434;-69
2023/07/05 04:20:30;;;;;;;2.83;2.07;;;15.90;93.10;;;;;;4994654;28;20434;-70
2023/07/05 04:22:59;;;;;;;3.63;2.30;;;16.00;93.50;;;;;;5001756;28;20460;-69
2023/07/05 04:25:26;;;;;;;4.00;3.07;;;15.90;93.70;;;;;;4998924;28;20965;-69
2023/07/05 04:27:57;;;;;;;4.10;2.87;;;16.00;93.50;;;;;;4994432;28;20464;-70
2023/07/05 04:30:24;;;;;;;5.00;2.27;;;16.00;93.50;;;;;;4994391;28;20429;-69
2023/07/05 04:32:51;;;;;;;9.60;2.70;;;16.20;93.50;;;;;;4969477;28;20500;-70
2023/07/05 04:35:19;;;;;;;4.07;2.20;;;16.20;93.60;;;;;;4955778;28;20589;-70
2023/07/05 04:37:47;;;;;;;4.10;2.33;;;16.30;93.20;;;;;;4990766;28;20429;-70
2023/07/05 04:40:14;;;;;;;4.50;2.70;;;16.20;93.10;;;;;;4992117;28;20445;-76
2023/07/05 04:42:42;;;;;;;3.70;1.97;;;16.30;93.00;;;;;;4996229;28;20457;-71
2023/07/05 04:45:13;;;;;;;4.20;2.53;;;16.40;93.50;;;;;;4999372;28;20476;-70
2023/07/05 04:47:40;;;;;;;3.57;2.23;;;16.50;93.30;;;;;;5013404;28;20479;-69
2023/07/05 04:50:08;;;;;;;4.20;2.60;;;16.40;92.40;;;;;;5013885;28;20440;-70
2023/07/05 04:52:35;;;;;;;3.20;1.83;;;16.50;92.60;;;;;;5013584;28;20455;-70
2023/07/05 04:55:03;;;;;;;4.70;2.70;;;16.50;92.50;;;;;;5013930;28;20425;-69
2023/07/05 04:57:30;;;;;;;4.00;2.27;;;16.60;93.10;;;;;;5013680;28;20468;-69
2023/07/05 05:00:04;;;;;;;3.23;2.27;;;16.60;93.90;;;;;;5013614;28;20436;-70
2023/07/05 05:02:31;;;;;;;4.40;2.50;;;16.80;93.50;;;;;;5013173;28;20437;-70
2023/07/05 05:04:58;;;;;;;5.40;2.80;;;16.80;93.10;;;;;;5013884;28;20510;-69
2023/07/05 05:07:25;;;;;;;3.10;2.27;;;16.90;92.40;;;;;;5008536;28;20803;-69
2023/07/05 05:09:52;;;;;;;4.03;2.07;;;17.00;92.50;;;;;;4994282;28;20816;-69
2023/07/05 05:12:20;;;;;;;2.87;1.80;;;17.20;92.50;;;;;;4993884;28;20437;-69
2023/07/05 05:14:47;;;;;;;3.37;2.10;;;17.20;92.50;;;;;;4993851;28;20491;-69
2023/07/05 05:17:14;;;;;;;3.27;2.43;;;17.30;92.50;;;;;;4994142;28;20497;-70
2023/07/05 05:19:41;;;;;;;3.83;1.90;;;17.40;92.40;;;;;;4994086;28;20497;-69
2023/07/05 05:22:09;;;;;;;3.40;2.13;;;17.50;92.40;;;;;;4993903;28;20472;-69
2023/07/05 05:24:41;;;;;;;4.77;2.50;;;17.60;92.60;;;;;;4994135;28;20799;-69
2023/07/05 05:27:08;;;;;;;4.70;2.13;;;17.70;92.90;;;;;;4993780;28;20904;-69
2023/07/05 05:29:36;;;;;;;4.13;2.40;;;17.80;93.10;;;;;;4993996;28;20434;-69
2023/07/05 05:32:04;;;;;;;3.80;1.97;;;17.90;93.20;;;;;;4994134;28;20535;-70
2023/07/05 05:34:31;;;;;;;8.10;2.23;;;18.00;93.30;;;;;;4994072;28;20824;-70
2023/07/05 05:36:59;;;;;;;3.23;1.83;;;18.20;93.30;;;;;;4993816;28;20524;-70
2023/07/05 05:39:26;;;;;;;3.63;2.53;;;18.40;93.10;;;;;;4994050;28;20777;-70
2023/07/05 05:41:53;;;;;;;3.77;1.50;;;18.50;92.30;;;;;;4993807;28;20524;-70
2023/07/05 05:44:20;;;;;;;3.30;1.90;;;18.70;91.40;;;;;;4994060;28;20832;-69
2023/07/05 05:46:49;;;;;;;3.03;1.60;;;18.80;90.90;;;;;;4993615;28;20474;-70
2023/07/05 05:49:16;;;;;;;5.43;2.10;;;18.90;88.20;;;;;;4994075;28;20489;-70
2023/07/05 05:51:44;;;;;;;5.27;1.63;;;19.00;86.80;;;;;;4993936;28;20439;-69
2023/07/05 05:54:13;;;;;;;4.30;2.63;;;19.10;83.90;;;;;;4993680;28;20977;-69
2023/07/05 05:56:40;;;;;;;2.63;1.50;;;19.20;83.20;;;;;;4993787;28;20437;-69
2023/07/05 05:59:07;;;;;;;4.07;2.00;;;19.30;82.00;;;;;;4993746;28;20442;-70
2023/07/05 06:01:34;;;;;;;4.67;2.00;;;19.30;82.60;;;;;;4993694;28;20435;-70
2023/07/05 06:04:03;;;;;;;5.43;1.80;;;19.40;83.30;;;;;;4993833;28;20475;-70
2023/07/05 06:06:30;;;;;;;4.47;1.97;;;19.50;83.80;;;;;;4993829;28;20434;-70
2023/07/05 06:08:57;;;;;;;3.50;1.77;;;19.60;83.50;;;;;;4993417;28;20442;-70
2023/07/05 06:11:24;;;;;;;3.20;1.80;;;19.70;81.10;;;;;;4993467;28;20928;-71
2023/07/05 06:13:51;;;;;;;7.00;3.63;;;19.70;81.20;;;;;;4995961;28;20446;-69
2023/07/05 06:16:20;;;;;;;5.50;4.20;;;19.80;80.80;;;;;;4997031;28;20927;-70
2023/07/05 06:18:47;;;;;;;7.63;3.20;;;19.90;80.50;;;;;;4997009;28;20996;-70
2023/07/05 06:21:15;;;;;;;4.47;2.60;;;19.90;80.80;;;;;;4997325;28;20432;-70
2023/07/05 06:23:42;;;;;;;4.60;1.90;;;20.00;80.90;;;;;;4996898;28;20946;-69
2023/07/05 06:26:10;;;;;;;4.40;2.17;;;20.20;80.80;;;;;;4995174;28;20435;-70
2023/07/05 06:28:38;;;;;;;3.10;1.60;;;20.30;79.90;;;;;;4997455;28;20436;-73
2023/07/05 06:31:06;;;;;;;3.73;2.10;;;20.40;80.40;;;;;;4997074;28;20486;-70
2023/07/05 06:33:33;;;;;;;4.10;2.20;;;20.50;80.80;;;;;;4996864;28;20439;-70
2023/07/05 06:36:01;;;;;;;5.40;1.90;;;20.60;81.40;;;;;;4996852;28;20501;-70
2023/07/05 06:38:30;;;;;;;3.87;1.70;;;20.60;79.80;;;;;;4996915;28;20438;-70
2023/07/05 06:40:58;;;;;;;3.20;2.00;;;20.70;78.60;;;;;;4996590;28;20907;-69
2023/07/05 06:43:25;;;;;;;6.17;1.90;;;20.80;78.90;;;;;;4996448;28;20468;-69
2023/07/05 06:45:56;;;;;;;3.30;1.70;;;20.80;79.40;;;;;;4996900;28;20822;-69
2023/07/05 06:48:24;;;;;;;3.47;2.17;;;20.90;79.40;;;;;;4996994;28;20492;-71
2023/07/05 06:50:52;;;;;;;3.73;2.10;;;21.00;79.80;;;;;;4996735;28;20531;-70
2023/07/05 06:53:19;;;;;;;6.03;1.87;;;21.10;80.20;;;;;;4996381;28;20826;-70
2023/07/05 06:55:49;;;;;;;3.10;1.60;;;21.20;80.20;;;;;;4996296;28;20464;-70
2023/07/05 06:58:16;;;;;;;2.90;1.50;;;21.40;80.20;;;;;;4996686;28;20416;-70
2023/07/05 07:00:45;;;;;;;4.80;1.60;;;21.60;80.90;;;;;;4996506;28;20475;-70
2023/07/05 07:03:13;;;;;;;2.77;1.40;;;21.70;80.60;;;;;;4996447;28;20428;-70
2023/07/05 07:05:40;;;;;;;9.00;2.57;;;21.90;80.30;;;;;;4996283;28;20473;-70
2023/07/05 07:08:11;;;;;;;2.80;1.57;;;22.00;78.90;;;;;;4996405;28;20433;-69
2023/07/05 07:10:38;;;;;;;2.73;1.40;;;22.20;79.30;;;;;;4996406;28;20822;-72
2023/07/05 07:13:07;;;;;;;2.50;1.53;;;22.40;78.60;;;;;;4996031;28;20497;-74
2023/07/05 07:15:35;;;;;;;7.00;1.90;;;22.60;77.90;;;;;;4995887;28;20488;-70
2023/07/05 07:18:02;;;;;;;3.50;1.57;;;22.70;76.80;;;;;;4996449;28;20473;-70
2023/07/05 07:20:30;;;;;;;2.43;1.23;;;22.80;74.20;;;;;;4996156;28;20729;-70
2023/07/05 07:22:57;;;;;;;4.40;1.77;;;22.90;73.70;;;;;;4996019;28;20441;-69
2023/07/05 07:25:24;;;;;;;3.57;1.80;;;22.90;73.20;;;;;;4994744;28;20505;-70
2023/07/05 07:27:51;;;;;;;2.57;1.60;;;23.00;72.40;;;;;;4995949;28;20461;-70
2023/07/05 07:30:19;;;;;;;4.03;2.17;;;23.00;72.00;;;;;;4996071;28;20469;-69
2023/07/05 07:32:47;;;;;;;4.70;2.20;;;23.00;70.90;;;;;;4993900;28;20468;-69
2023/07/05 07:35:14;;;;;;;2.87;1.63;;;23.00;69.50;;;;;;4995560;28;20951;-70
2023/07/05 07:37:41;;;;;;;5.03;1.87;;;23.00;69.50;;;;;;4995477;28;20437;-70
2023/07/05 07:40:09;;;;;;;5.60;2.23;;;23.00;69.40;;;;;;4995930;28;20483;-69
2023/07/05 07:42:36;;;;;;;5.00;2.23;;;23.10;69.90;;;;;;4993739;28;20531;-70
2023/07/05 07:45:03;;;;;;;2.90;1.83;;;23.10;69.50;;;;;;4994623;28;20871;-70
2023/07/05 07:47:32;;;;;;;2.70;1.53;;;23.20;69.80;;;;;;4995496;28;20511;-69
2023/07/05 07:49:59;;;;;;;2.50;1.50;;;23.30;70.50;;;;;;4994840;28;20437;-70
2023/07/05 07:52:28;;;;;;;3.77;1.73;;;23.40;69.90;;;;;;4995501;28;20438;-70
2023/07/05 07:54:56;;;;;;;3.10;1.80;;;23.50;69.10;;;;;;4994310;28;20436;-70
2023/07/05 07:57:23;;;;;;;3.23;2.07;;;23.60;68.60;;;;;;4995434;28;20888;-70
2023/07/05 07:59:52;;;;;;;3.50;1.40;;;23.70;67.50;;;;;;4995589;28;20442;-69
2023/07/05 08:02:19;;;;;;;5.03;2.50;;;23.80;66.90;;;;;;4995077;28;20508;-70
2023/07/05 08:04:52;;;;;;;5.97;1.93;;;23.80;67.10;;;;;;4994954;28;20466;-70
2023/07/05 08:07:19;;;;;;;3.20;1.90;;;23.90;67.60;;;;;;4995366;28;20434;-70
2023/07/05 08:09:50;;;;;;;4.57;1.93;;;24.00;68.50;;;;;;4995193;28;20438;-70
2023/07/05 08:12:18;;;;;;;3.40;1.60;;;24.10;68.60;;;;;;4995187;28;20425;-69
2023/07/05 08:14:45;;;;;;;7.90;1.70;;;24.10;66.30;;;;;;4994753;28;20446;-70
2023/07/05 08:17:12;;;;;;;3.77;2.23;;;24.20;65.70;;;;;;4994735;28;20470;-70
2023/07/05 08:19:40;;;;;;;3.27;2.10;;;24.20;65.00;;;;;;4994933;28;20832;-70
2023/07/05 08:22:09;;;;;;;4.37;2.03;;;24.20;64.80;;;;;;4994944;28;20431;-70
2023/07/05 08:24:36;;;;;;;4.63;2.10;;;24.20;64.30;;;;;;4995027;28;20438;-70
2023/07/05 08:27:05;;;;;;;2.70;1.33;;;24.20;63.60;;;;;;4994868;28;20437;-69
2023/07/05 08:29:32;;;;;;;3.97;1.80;;;24.20;63.20;;;;;;4994529;28;20441;-70
2023/07/05 08:31:59;;;;;;;3.70;2.33;;;24.20;62.80;;;;;;4994464;28;20493;-70
2023/07/05 08:34:26;;;;;;;2.70;1.70;;;24.20;62.80;;;;;;4994725;28;20488;-71
2023/07/05 08:36:58;;;;;;;3.60;2.17;;;24.20;63.30;;;;;;4994449;28;20879;-70
2023/07/05 08:39:26;;;;;;;3.70;1.73;;;24.10;63.30;;;;;;4994548;28;20430;-70
2023/07/05 08:42:25;;;;;;;4.50;2.30;;;24.10;63.30;;;;;;4993938;28;20429;-70
2023/07/05 08:45:01;;;;;;;3.80;1.80;;;24.10;63.70;;;;;;4994111;28;20476;-69
2023/07/05 08:47:33;;;;;;;3.67;1.70;;;24.20;64.90;;;;;;4993922;28;20899;-70
2023/07/05 08:50:11;;;;;;;4.97;2.47;;;24.30;65.20;;;;;;4994413;28;20502;-70
2023/07/05 08:52:43;;;;;;;4.93;2.03;;;24.50;65.20;;;;;;4994030;28;20429;-70
2023/07/05 08:55:14;;;;;;;3.83;2.10;;;24.80;65.30;;;;;;4994139;28;20894;-70
2023/07/05 08:57:47;;;;;;;4.20;1.87;;;25.00;64.30;;;;;;4994402;28;20478;-69
2023/07/05 09:00:20;;;;;;;3.37;1.80;;;25.20;64.70;;;;;;4994007;28;20430;-69
2023/07/05 09:02:48;;;;;;;4.60;2.20;;;25.40;64.00;;;;;;4994009;28;20484;-70
2023/07/05 09:05:17;;;;;;;4.90;2.07;;;25.60;62.60;;;;;;4993744;28;20503;-71
2023/07/05 09:07:56;;;;;;;3.00;1.57;;;25.80;62.30;;;;;;4993758;28;20440;-70
2023/07/05 09:10:34;;;;;;;3.97;1.87;;;25.90;60.50;;;;;;4993820;28;20763;-70
2023/07/05 09:13:07;;;;;;;2.83;1.43;;;26.10;59.70;;;;;;4993861;28;20529;-69
2023/07/05 09:15:38;;;;;;;4.90;1.70;;;26.40;59.00;;;;;;4993703;28;20919;-71
2023/07/05 09:18:15;;;;;;;4.10;1.73;;;26.50;57.70;;;;;;4993724;28;20473;-72
2023/07/05 09:20:55;;;;;;;3.43;2.03;;;26.70;56.70;;;;;;4993684;28;20456;-70
2023/07/05 09:23:27;;;;;;;5.33;1.80;;;26.80;55.70;;;;;;4993659;28;20464;-70
2023/07/05 09:26:01;;;;;;;6.20;1.83;;;26.90;55.70;;;;;;4993588;28;20466;-70
2023/07/05 09:28:33;;;;;;;4.30;2.13;;;27.00;53.40;;;;;;4994054;28;20506;-70
2023/07/05 09:31:01;;;;;;;3.30;2.00;;;27.10;52.70;;;;;;4993710;28;20460;-70
2023/07/05 09:33:33;;;;;;;4.47;2.20;;;27.10;51.70;;;;;;4993868;28;20428;-70
2023/07/05 09:36:04;;;;;;;3.40;2.13;;;27.20;51.60;;;;;;4994004;28;20420;-70
2023/07/05 09:38:35;;;;;;;3.20;1.80;;;27.30;52.70;;;;;;4993660;28;20906;-70
2023/07/05 09:41:10;;;;;;;5.70;1.80;;;27.40;51.90;;;;;;4993699;28;20466;-70
2023/07/05 09:43:37;;;;;;;3.27;2.37;;;27.50;51.70;;;;;;4993602;28;20463;-70
2023/07/05 09:46:09;;;;;;;4.93;2.10;;;27.60;50.60;;;;;;4993739;28;20531;-70
2023/07/05 09:48:43;;;;;;;4.93;2.20;;;27.60;50.00;;;;;;4995850;28;20499;-70
2023/07/05 09:51:17;;;;;;;5.23;2.20;;;27.70;50.70;;;;;;4997375;28;20425;-70
2023/07/05 09:53:49;;;;;;;4.53;2.20;;;27.60;50.30;;;;;;4997241;28;20420;-70
2023/07/05 09:56:23;;;;;;;3.43;2.40;;;27.50;50.30;;;;;;4997559;28;20746;-69
2023/07/05 09:58:50;;;;;;;4.50;2.50;;;27.40;50.90;;;;;;4997589;28;20428;-70
2023/07/05 10:01:25;;;;;;;4.63;2.20;;;27.30;51.10;;;;;;4997474;28;20436;-70
2023/07/05 10:03:57;;;;;;;6.77;2.20;;;27.20;50.50;;;;;;4997074;28;20506;-70
2023/07/05 10:06:25;;;;;;;3.33;2.23;;;27.20;50.20;;;;;;4997007;28;20522;-70
2023/07/05 10:08:54;;;;;;;4.33;2.43;;;27.10;51.50;;;;;;4997214;28;20772;-70
2023/07/05 10:11:24;;;;;;;6.90;2.70;;;26.90;51.10;;;;;;4996331;28;20771;-70
2023/07/05 10:14:12;;;;;;;4.77;2.80;;;26.80;50.30;;;;;;4997374;28;20413;-69
2023/07/05 10:16:55;;;;;;;6.50;2.87;;;26.70;51.30;;;;;;4997099;28;20427;-70
2023/07/05 10:19:27;;;;;;;4.43;3.07;;;26.70;53.00;;;;;;4997054;28;20566;-70
2023/07/05 10:21:58;;;;;;;4.93;2.80;;;26.70;52.10;;;;;;4997214;28;20495;-70
2023/07/05 10:24:29;;;;;;;5.50;3.07;;;26.80;51.60;;;;;;4996935;28;20420;-69
2023/07/05 10:27:19;;;;;;;8.53;2.90;;;26.70;51.50;;;;;;4997189;28;20491;-70
2023/07/05 10:29:48;;;;;;;5.40;2.47;;;26.60;49.60;;;;;;4997313;28;20494;-70
2023/07/05 10:32:19;;;;;;;5.00;2.57;;;26.50;49.20;;;;;;4996783;28;20435;-70
2023/07/05 10:34:50;;;;;;;7.73;2.67;;;26.40;49.60;;;;;;4996699;28;20452;-70
2023/07/05 10:37:28;;;;;;;9.33;2.90;;;26.30;50.40;;;;;;4997084;28;20523;-70
2023/07/05 10:39:56;;;;;;;4.40;2.47;;;26.20;51.60;;;;;;4997126;28;20517;-70
2023/07/05 10:42:25;;;;;;;4.00;2.53;;;26.10;51.40;;;;;;4996852;28;20467;-70
2023/07/05 10:44:53;;;;;;;4.90;2.80;;;26.10;52.20;;;;;;4996999;28;20819;-69
2023/07/05 10:47:21;;;;;;;5.00;2.80;;;26.00;51.60;;;;;;4996930;28;20538;-69
2023/07/05 10:49:51;;;;;;;4.13;2.40;;;25.90;51.80;;;;;;4996979;28;20456;-69
2023/07/05 10:52:20;;;;;;;5.07;2.30;;;25.80;51.70;;;;;;4996713;28;20424;-70
2023/07/05 10:54:54;;;;;;;5.53;2.67;;;25.70;51.90;;;;;;4996770;28;20437;-70
2023/07/05 10:57:28;;;;;;;6.53;2.90;;;25.60;52.20;;;;;;4996438;28;20458;-70
2023/07/05 11:00:03;;;;;;;7.20;2.57;;;25.60;52.10;;;;;;4995593;28;20473;-70
2023/07/05 11:02:40;;;;;;;4.50;2.70;;;25.50;51.30;;;;;;4996581;28;20870;-70
2023/07/05 11:05:20;;;;;;;4.47;2.70;;;25.40;51.20;;;;;;4996620;28;20473;-69
2023/07/05 11:07:51;;;;;;;4.07;2.87;;;25.20;51.30;;;;;;4996003;28;20482;-70
2023/07/05 11:10:18;;;;;;;3.57;2.30;;;25.10;51.90;;;;;;4996176;28;20456;-70
2023/07/05 11:12:48;;;;;;;4.60;2.90;;;25.00;52.80;;;;;;4996282;28;20428;-70
2023/07/05 11:15:17;;;;;;;4.50;2.87;;;24.90;53.30;;;;;;4996027;28;20477;-70
2023/07/05 11:17:46;;;;;;;6.83;2.63;;;24.70;53.60;;;;;;4996386;28;20506;-70
2023/07/05 11:20:46;;;;;;;4.80;2.63;;;24.60;53.80;;;;;;4996116;28;20442;-70
2023/07/05 11:23:54;;;;;;;4.20;2.23;;;24.40;53.20;;;;;;4996095;28;20442;-70
2023/07/05 11:26:33;;;;;;;3.57;2.07;;;24.20;51.30;;;;;;4996156;28;20778;-70
2023/07/05 11:29:22;;;;;;;3.63;1.77;;;23.90;51.50;;;;;;4995927;28;20441;-69
2023/07/05 11:32:00;;;;;;;3.57;1.50;;;23.60;51.90;;;;;;4995723;28;20461;-71
2023/07/05 11:34:39;;;;;;;5.13;1.70;;;23.50;52.20;;;;;;4995474;28;20461;-70
2023/07/05 11:37:40;;;;;;;2.73;1.20;;;23.30;52.20;;;;;;4995498;28;20466;-70
2023/07/05 11:41:01;;;;;;;6.63;2.17;;;23.10;52.50;;;;;;4993986;28;20445;-69
2023/07/05 11:43:40;;;;;;;4.77;2.03;;;22.80;53.70;;;;;;4995929;28;20466;-69
2023/07/05 11:46:38;;;;;;;6.50;2.20;;;22.60;57.00;;;;;;4995711;28;20783;-69
2023/07/05 11:49:34;;;;;;;7.80;1.80;;;22.40;60.00;;;;;;4995303;28;20425;-69
2023/07/05 11:52:22;;;;;;;3.53;1.67;;;22.20;63.40;;;;;;4995856;28;20443;-69
2023/07/05 11:54:54;;;;;;;3.83;1.57;;;22.00;65.70;;;;;;4995292;28;20425;-69
2023/07/05 11:57:23;;;;;;;2.77;1.20;;;21.70;67.90;;;;;;4995237;28;20497;-69
2023/07/05 11:59:59;;;;;;;2.73;1.47;;;21.50;68.80;;;;;;4995343;28;20436;-69
2023/07/05 12:02:39;;;;;;;3.37;1.17;;;21.40;69.40;;;;;;4995141;28;20417;-70
2023/07/05 12:05:11;;;;;;;5.50;1.67;;;21.30;70.40;;;;;;4995667;28;20744;-69
2023/07/05 12:07:40;;;;;;;2.50;1.50;;;21.10;71.70;;;;;;4995072;28;20911;-69
2023/07/05 12:10:10;;;;;;;3.73;1.53;;;21.00;72.20;;;;;;4995271;28;20430;-69
2023/07/05 12:12:45;;;;;;;5.03;1.70;;;20.90;73.90;;;;;;4995192;28;20469;-70
2023/07/05 12:15:12;;;;;;;3.70;1.50;;;20.80;73.80;;;;;;4994964;28;20531;-69
2023/07/05 12:17:42;;;;;;;3.90;1.27;;;20.70;73.80;;;;;;4994757;28;20437;-69
2023/07/05 12:20:28;;;;;;;5.03;1.53;;;20.50;74.60;;;;;;4995140;28;20809;-69
2023/07/05 12:22:57;;;;;;;5.70;1.30;;;20.50;74.80;;;;;;4994614;28;20424;-69
2023/07/05 12:25:25;;;;;;;2.83;1.10;;;20.30;75.20;;;;;;4994567;28;20483;-69
2023/07/05 12:27:52;;;;;;;2.87;1.20;;;20.30;76.40;;;;;;4994900;28;20497;-69
2023/07/05 12:30:22;;;;;;;4.00;1.77;;;20.20;77.50;;;;;;4994912;28;20436;-69
2023/07/05 12:32:51;;;;;;;3.27;1.37;;;20.10;77.30;;;;;;4994995;28;20428;-69
2023/07/05 12:35:22;;;;;;;4.20;1.37;;;20.10;77.30;;;;;;4994841;28;20979;-69
2023/07/05 12:37:50;;;;;;;5.60;1.97;;;20.00;79.60;;;;;;4994680;28;20426;-69
2023/07/05 12:40:30;;;;;;;3.47;1.80;;;19.90;80.10;;;;;;4994760;28;20436;-69
2023/07/05 12:43:00;;;;;;;4.33;2.10;;;19.80;81.20;;;;;;4994301;28;20532;-69
2023/07/05 12:45:31;;;;;;;2.27;1.10;;;19.90;81.50;;;;;;4994480;28;20440;-69
2023/07/05 12:48:12;;;;;;;3.93;1.67;;;19.80;81.10;;;;;;4994150;28;20464;-69
2023/07/05 12:50:42;;;;;;;3.37;1.23;;;19.80;82.40;;;;;;4994606;28;20490;-69
2023/07/05 12:53:21;;;;;;;4.70;1.57;;;19.90;84.20;;;;;;4994040;28;20466;-69
2023/07/05 12:55:56;;;;;;;2.97;1.57;;;19.90;84.40;;;;;;4994383;28;20420;-70
2023/07/05 12:58:26;;;;;;;3.03;1.50;;;20.00;85.40;;;;;;4994132;28;20891;-69
2023/07/05 13:00:56;;;;;;;2.10;1.03;;;20.00;86.10;;;;;;4994331;28;20464;-70
2023/07/05 13:03:27;;;;;;;2.70;1.43;;;20.10;84.30;;;;;;4994300;28;20762;-69
2023/07/05 13:05:54;;;;;;;4.83;1.70;;;20.10;84.40;;;;;;4994222;28;20448;-69
2023/07/05 13:08:24;;;;;;;7.00;2.10;;;20.20;84.10;;;;;;4994116;28;20432;-69